Latest Weather Observations for Falls Creek

IDV60801

Issued at 5:35 am EDT Saturday 22 November 2014 (issued every 30 minutes, with the page automatically refreshed every 10 minutes)

About weather observations | Map of weather stations | Latest weather observations for VIC | Other Formats
Station Details ID: 083084 Name: FALLS CREEK Lat: -36.87 Lon: 147.28 Height: 1765.0 m
Data from the previous 72 hours. | See also: Recent months at Falls Creek
Date/Time
EDT
Temp
°C
App
Temp
°C
Dew
Point
Rel
Hum
%
Delta-T
°C
Wind Press
QNH
hPa
Press
MSL
hPa
Rain
since 9 am
mm
Dir
 
Spd
km/h
Gust
km/h
Spd
kts
Gust
kts
22/05:30am 8.7 2.5 2.1 63 3.1 NW 24 30 13 16 1016.3 1011.7 0.0
22/05:00am 8.4 2.5 2.0 64 3.0 NW 22 26 12 14 1016.1 1011.4 0.0
22/04:30am 8.5 2.2 1.6 62 3.2 NNW 24 28 13 15 1016.1 1011.4 0.0
22/04:00am 8.6 1.9 1.7 62 3.2 NNW 26 30 14 16 1016.1 1011.4 0.0
22/03:30am 8.5 2.3 2.3 65 2.9 NNW 24 28 13 15 1016.2 1011.5 0.0
22/03:00am 8.7 2.6 2.9 67 2.8 NNW 24 30 13 16 1016.2 1011.5 0.0
22/02:30am 8.6 3.3 3.0 68 2.7 NW 20 26 11 14 1016.4 1011.8 0.0
22/02:00am 8.6 3.3 3.2 69 2.6 NNW 20 26 11 14 1016.8 1012.2 0.0
22/01:30am 8.6 3.3 3.0 68 2.7 NNW 20 22 11 12 1017.0 1012.4 0.0
22/01:00am 8.9 3.8 3.1 67 2.8 NNW 19 24 10 13 1017.4 1012.8 0.0
22/12:30am 9.1 3.8 3.1 66 2.9 NNW 20 26 11 14 1017.6 1013.0 0.0
22/12:00am 9.1 3.9 3.5 68 2.7 NNW 20 24 11 13 1017.7 1013.1 0.0
 
Date/Time
EDT
Temp
°C
App
Temp
°C
Dew
Point
Rel
Hum
%
Delta-T
°C
Wind Press
QNH
hPa
Press
MSL
hPa
Rain
since 9 am
mm
Dir
 
Spd
km/h
Gust
km/h
Spd
kts
Gust
kts
21/11:30pm 9.2 4.2 3.6 68 2.7 NNW 19 24 10 13 1017.9 1013.3 0.0
21/11:00pm 9.2 4.3 4.0 70 2.5 NNW 19 24 10 13 1018.0 1013.4 0.0
21/10:30pm 9.3 4.8 4.1 70 2.5 NNW 17 20 9 11 1018.0 1013.4 0.0
21/10:00pm 9.2 5.4 4.0 70 2.5 NNW 13 19 7 10 1017.9 1013.3 0.0
21/09:30pm 9.5 5.5 4.7 72 2.4 NNW 15 20 8 11 1017.7 1013.1 0.0
21/09:00pm 9.6 6.0 4.8 72 2.4 NW 13 19 7 10 1017.4 1012.8 0.0
21/08:30pm 10.0 6.4 5.2 72 2.4 NW 13 19 7 10 1017.3 1012.6 0.0
21/08:00pm 10.5 6.2 5.3 70 2.6 NNW 17 22 9 12 1016.9 1012.3 0.0
21/07:30pm 11.1 6.4 5.2 67 3.0 NNW 19 24 10 13 1016.5 1011.9 0.0
21/07:00pm 11.9 7.7 5.5 65 3.3 NNW 17 24 9 13 1016.2 1011.5 0.0
21/06:30pm 12.5 8.0 5.9 64 3.4 NNW 19 26 10 14 1015.8 1011.2 0.0
21/06:00pm 12.9 8.8 6.3 64 3.5 NNW 17 28 9 15 1015.5 1010.8 0.0
21/05:30pm 13.7 9.2 6.8 63 3.7 NNW 20 32 11 17 1015.4 1010.7 0.0
21/05:00pm 15.0 10.5 6.3 56 4.6 WNW 19 33 10 18 1015.4 1010.7 0.0
21/04:30pm 14.7 10.1 6.5 58 4.4 NNW 20 35 11 19 1015.0 1010.3 0.0
21/04:00pm 14.0 8.9 6.1 59 4.2 NW 22 37 12 20 1015.1 1010.4 0.0
21/03:30pm 15.1 9.4 6.9 58 4.4 NW 26 52 14 28 1015.1 1010.4 0.0
21/03:00pm 14.6 8.3 5.9 56 4.6 NW 28 41 15 22 1015.0 1010.3 0.0
21/02:30pm 14.6 8.6 6.9 60 4.1 NNW 28 46 15 25 1014.8 1010.1 0.0
21/02:23pm 14.3 8.3 6.9 61 4.0 NNW 28 46 15 25 1014.8 1010.1 0.0
21/02:00pm 14.3 8.2 6.6 60 4.1 NNW 28 43 15 23 1014.8 1010.1 0.0
21/01:30pm 14.3 8.1 8.0 66 3.5 NNW 30 50 16 27 1014.5 1009.8 0.0
21/01:15pm 13.4 7.6 8.0 70 2.9 NNW 28 50 15 27 1014.4 1009.7 0.0
21/01:00pm 12.7 7.2 9.0 78 2.0 NNW 28 44 15 24 1014.5 1009.8 0.0
21/12:30pm 12.4 6.2 9.4 82 1.7 NNW 32 44 17 24 1014.5 1009.8 0.0
21/12:16pm 12.1 6.5 10.3 89 1.0 NNW 30 48 16 26 1014.3 1009.6 0.0
21/12:00pm 11.3 5.6 11.3 100 0.0 NNW 32 48 17 26 1014.2 1009.4 0.0
21/11:39am 10.5 5.4 10.5 100 0.0 NNW 28 46 15 25 1014.2 1009.4 0.0
21/11:30am 10.7 6.4 10.7 100 0.0 NNW 24 35 13 19 1014.4 1009.7 0.0
21/11:03am 9.6 4.2 9.6 100 0.0 NW 28 54 15 29 1014.2 1009.4 0.0
21/11:00am 9.5 4.5 9.5 100 0.0 NW 26 54 14 29 1014.2 1009.4 0.0
21/10:33am 9.5 4.1 9.5 100 0.0 NNW 28 46 15 25 1013.9 1009.2 0.0
21/10:30am 9.4 3.2 9.4 100 0.0 NNW 32 46 17 25 1013.9 1009.2 0.0
21/10:00am 9.6 2.5 9.6 100 0.0 NNW 37 56 20 30 1013.0 1008.2 0.0
21/09:30am 9.5 3.3 9.5 100 0.0 NNW 32 50 17 27 1013.1 1008.3 0.0
21/09:08am 9.4 3.2 9.4 100 0.0 NW 32 56 17 30 1013.3 1008.6 0.0
21/09:00am 9.4 3.2 9.4 100 0.0 WNW 32 41 17 22 1013.6 1008.8 1.8
21/08:51am 9.4 3.2 9.4 100 0.0 NNW 32 52 17 28 1013.5 1008.7 1.8
21/08:30am 9.1 4.7 9.1 100 0.0 NNW 22 37 12 20 1013.3 1008.6 1.4
21/08:12am 9.1 3.6 9.1 100 0.0 NNW 28 46 15 25 1013.0 1008.2 1.2
21/08:00am 8.9 4.9 8.9 100 0.0 NW 20 35 11 19 1013.1 1008.3 1.2
21/07:48am 8.9 3.3 8.9 100 0.0 NNW 28 48 15 26 1012.9 1008.1 1.2
21/07:30am 8.8 3.2 8.8 100 0.0 NNW 28 43 15 23 1012.7 1008.0 1.2
21/07:00am 8.5 4.4 8.5 100 0.0 NNW 20 33 11 18 1012.4 1007.6 1.2
21/06:30am 8.5 4.4 8.5 100 0.0 NNW 20 35 11 19 1012.1 1007.3 1.2
21/06:00am 8.6 4.4 8.2 97 0.2 NW 20 37 11 20 1012.1 1007.3 1.2
21/05:30am 9.0 2.8 7.8 92 0.6 NNW 30 46 16 25 1011.5 1006.7 1.2
21/05:00am 9.6 2.9 7.4 86 1.2 NNW 32 48 17 26 1011.3 1006.5 1.2
21/04:30am 10.0 3.6 6.9 81 1.6 NNW 30 46 16 25 1011.2 1006.4 1.2
21/04:20am 10.2 3.4 7.1 81 1.6 NNW 32 50 17 27 1011.1 1006.2 1.2
21/04:00am 10.1 3.3 6.8 80 1.7 NNW 32 46 17 25 1011.2 1006.4 1.2
21/03:30am 10.7 3.8 6.6 76 2.1 NNW 32 54 17 29 1011.1 1006.2 1.2
21/03:00am 11.0 3.5 6.2 72 2.5 NNW 35 54 19 29 1011.3 1006.5 1.2
21/02:30am 10.9 3.8 6.3 73 2.4 NW 33 69 18 37 1011.7 1006.9 1.2
21/02:25am 10.9 3.9 6.1 72 2.5 NW 32 69 17 37 1011.8 1007.0 1.2
21/02:12am 10.6 3.7 6.6 76 2.1 NNW 32 50 17 27 1012.0 1007.2 1.0
21/02:00am 10.4 3.6 6.7 78 1.9 NNW 32 46 17 25 1012.1 1007.3 1.0
21/01:30am 10.3 3.2 6.6 78 1.9 NNW 33 52 18 28 1012.6 1007.8 1.0
21/01:09am 9.7 2.9 7.1 84 1.4 NNW 32 56 17 30 1012.9 1008.1 1.0
21/01:00am 9.2 2.4 7.6 90 0.8 NNW 33 46 18 25 1013.1 1008.3 1.0
21/12:40am 9.3 2.1 7.6 89 0.9 NNW 35 56 19 30 1013.8 1009.1 0.8
21/12:30am 9.1 1.5 7.7 91 0.7 NNW 37 52 20 28 1013.9 1009.2 0.8
21/12:00am 9.8 3.1 7.2 84 1.4 NNW 32 50 17 27 1014.8 1010.1 0.2
 
Date/Time
EDT
Temp
°C
App
Temp
°C
Dew
Point
Rel
Hum
%
Delta-T
°C
Wind Press
QNH
hPa
Press
MSL
hPa
Rain
since 9 am
mm
Dir
 
Spd
km/h
Gust
km/h
Spd
kts
Gust
kts
20/11:59pm 9.7 2.9 7.0 83 1.4 NNW 32 50 17 27 1014.9 1010.2 0.0
20/11:30pm 10.2 4.8 6.5 78 1.9 NW 24 43 13 23 1015.5 1010.8 0.0
20/11:00pm 11.8 6.1 5.0 63 3.5 NW 24 41 13 22 1015.6 1010.9 0.0
20/10:30pm 12.5 6.3 4.5 58 4.0 WNW 26 39 14 21 1015.5 1010.8 0.0
20/10:00pm 12.6 8.0 3.8 55 4.4 WNW 17 28 9 15 1015.7 1011.0 0.0
20/09:00pm 12.8 7.6 3.5 53 4.6 WSW 20 33 11 18 1015.6 1010.9 0.0
20/08:30pm 13.9 8.1 2.5 46 5.6 WSW 22 28 12 15 1015.4 1010.7 0.0
20/08:00pm 14.6 9.3 1.8 42 6.2 WNW 19 28 10 15 1015.2 1010.6 0.0
20/07:30pm 14.9 9.3 1.4 40 6.5 NW 20 35 11 19 1015.1 1010.4 0.0
20/07:00pm 15.1 8.8 1.6 40 6.5 NNW 24 39 13 21 1015.0 1010.3 0.0
20/06:30pm 15.4 7.6 1.5 39 6.7 NNW 32 54 17 29 1014.5 1009.8 0.0
20/06:16pm 15.4 7.4 1.5 39 6.7 NNW 33 52 18 28 1014.6 1009.9 0.0
20/06:14pm 15.5 5.5 1.3 38 6.9 N 43 52 23 28 1014.5 1009.8 0.0
20/06:00pm 15.5 9.6 1.6 39 6.8 NW 22 35 12 19 1014.6 1009.9 0.0
20/05:48pm 15.6 8.6 2.1 40 6.6 NNW 28 46 15 25 1014.6 1009.9 0.0
20/05:30pm 15.8 8.8 2.2 40 6.7 NNW 28 43 15 23 1014.5 1009.8 0.0
20/05:00pm 16.0 8.8 3.1 42 6.5 NNW 30 41 16 22 1014.6 1009.9 0.0
20/04:30pm 16.1 8.3 1.4 37 7.1 N 32 44 17 24 1014.4 1009.7 0.0
20/04:00pm 17.2 8.8 1.6 35 7.7 N 35 46 19 25 1014.8 1010.1 0.0
20/03:30pm 16.4 9.5 2.4 39 7.0 N 28 39 15 21 1015.4 1010.7 0.0
20/03:00pm 16.1 9.3 0.7 35 7.4 NNW 26 41 14 22 1016.2 1011.5 0.0
20/02:30pm 16.7 10.3 1.2 35 7.5 N 24 41 13 22 1016.5 1011.9 0.0
20/02:00pm 15.6 8.9 1.3 38 6.9 NNW 26 37 14 20 1017.1 1012.5 0.0
20/01:30pm 15.0 7.2 1.9 41 6.4 N 32 43 17 23 1017.4 1012.8 0.0
20/01:00pm 16.5 8.7 1.4 36 7.4 NNW 32 44 17 24 1017.6 1013.0 0.0
20/12:30pm 15.9 7.0 0.9 36 7.2 NW 37 50 20 27 1017.5 1012.9 0.0
20/12:04pm 15.9 7.1 1.2 37 7.1 NNW 37 56 20 30 1017.6 1013.0 0.0
20/12:00pm 15.4 6.1 0.8 37 7.0 NNW 39 54 21 29 1017.6 1013.0 0.0
20/11:30am 15.0 6.4 0.4 37 6.9 NNW 35 54 19 29 1017.9 1013.3 0.0
20/11:00am 15.3 6.6 -0.4 34 7.3 NNW 35 56 19 30 1017.7 1013.1 0.0
20/10:39am 14.3 6.0 -0.2 37 6.7 NNW 33 52 18 28 1017.9 1013.3 0.0
20/10:30am 13.3 5.0 -0.3 39 6.2 NNW 33 44 18 24 1018.0 1013.4 0.0
20/10:00am 12.5 5.6 0.0 42 5.7 NNW 26 35 14 19 1018.4 1013.9 0.0
20/09:30am 12.0 4.5 -1.2 40 5.9 NNW 28 37 15 20 1018.6 1014.0 0.0
20/09:00am 11.9 3.6 -1.6 39 5.9 NW 32 43 17 23 1018.9 1014.4 0.0
20/08:30am 11.4 3.6 -0.7 43 5.4 NW 30 39 16 21 1018.7 1014.1 0.0
20/08:00am 11.4 3.0 -1.4 41 5.6 NNW 33 46 18 25 1018.4 1013.9 0.0
20/07:30am 11.3 3.8 -1.1 42 5.5 NNW 28 37 15 20 1018.4 1013.9 0.0
20/07:00am 10.7 2.9 -1.0 44 5.2 NW 30 41 16 22 1018.1 1013.5 0.0
20/06:30am 10.5 3.0 -1.5 43 5.2 NW 28 37 15 20 1018.1 1013.5 0.0
20/06:00am 10.2 2.3 -1.5 44 5.1 NW 30 41 16 22 1018.0 1013.4 0.0
20/05:30am 10.3 2.4 -1.4 44 5.1 NNW 30 43 16 23 1017.7 1013.1 0.0
20/05:00am 10.0 1.7 -1.4 45 5.0 NNW 32 41 17 22 1017.5 1012.9 0.0
20/04:30am 10.0 2.5 -1.4 45 5.0 NNW 28 37 15 20 1017.3 1012.6 0.0
20/04:00am 10.0 2.1 -1.7 44 5.1 NW 30 43 16 23 1017.6 1013.0 0.0
20/03:30am 10.1 1.8 -1.6 44 5.1 NNW 32 41 17 22 1017.0 1012.4 0.0
20/03:00am 9.7 2.2 -1.3 46 4.8 NW 28 37 15 20 1018.0 1013.4 0.0
20/02:30am 9.4 2.3 -1.0 48 4.5 NW 26 35 14 19 1018.1 1013.5 0.0
20/02:00am 9.7 3.0 -1.1 47 4.7 NW 24 33 13 18 1018.4 1013.9 0.0
20/01:30am 9.9 3.6 -1.2 46 4.8 NW 22 32 12 17 1019.0 1014.5 0.0
20/01:00am 9.8 2.4 -1.0 47 4.7 NW 28 35 15 19 1019.2 1014.6 0.0
20/12:30am 9.8 2.4 -1.0 47 4.7 NW 28 35 15 19 1019.5 1015.0 0.0
20/12:00am 10.0 2.5 -1.1 46 4.9 NW 28 35 15 19 1019.6 1015.1 0.0
 
Date/Time
EDT
Temp
°C
App
Temp
°C
Dew
Point
Rel
Hum
%
Delta-T
°C
Wind Press
QNH
hPa
Press
MSL
hPa
Rain
since 9 am
mm
Dir
 
Spd
km/h
Gust
km/h
Spd
kts
Gust
kts
19/11:30pm 9.9 2.4 -1.2 46 4.8 NW 28 35 15 19 1020.0 1015.5 0.0
19/11:00pm 10.0 2.2 -1.1 46 4.9 NW 30 35 16 19 1019.8 1015.2 0.0
19/10:30pm 10.0 1.7 -1.4 45 5.0 NW 32 39 17 21 1019.8 1015.2 0.0
19/10:00pm 9.8 1.9 -1.3 46 4.8 NW 30 37 16 20 1019.8 1015.2 0.0
19/09:30pm 9.8 3.6 -0.1 50 4.4 NW 22 33 12 18 1020.2 1015.7 0.0
19/09:00pm 10.0 4.4 0.9 53 4.2 NW 20 28 11 15 1020.2 1015.7 0.0
19/08:30pm 10.0 4.7 1.9 57 3.8 NW 19 22 10 12 1020.3 1015.9 0.0
19/08:00pm 10.2 4.4 2.1 57 3.8 NNW 22 28 12 15 1020.5 1016.0 0.0
19/07:30pm 10.8 5.4 2.4 56 4.0 NNW 20 30 11 16 1020.0 1015.5 0.0
19/07:00pm 11.3 5.6 2.6 55 4.2 NNW 22 32 12 17 1019.8 1015.2 0.0
19/06:30pm 11.5 5.8 3.0 56 4.1 NNW 22 33 12 18 1020.1 1015.6 0.0
19/06:00pm 11.9 6.7 3.4 56 4.2 NNW 20 30 11 16 1020.1 1015.6 0.0
19/05:30pm 12.6 7.5 4.3 57 4.2 NNW 20 35 11 19 1020.1 1015.6 0.0
19/05:00pm 13.2 7.5 4.9 57 4.2 NNW 24 41 13 22 1020.5 1016.0 0.0
19/04:30pm 13.2 7.4 4.6 56 4.4 NNW 24 39 13 21 1020.5 1016.0 0.0
19/04:00pm 13.7 7.9 4.6 54 4.6 NNW 24 37 13 20 1020.5 1016.0 0.0
19/03:30pm 13.9 7.9 3.4 49 5.2 NNW 24 41 13 22 1021.3 1016.8 0.0
19/03:00pm 13.7 7.8 4.0 52 4.9 NNW 24 43 13 23 1021.5 1017.1 0.0
19/02:30pm 13.4 7.1 4.0 53 4.7 N 26 37 14 20 1021.5 1017.1 0.0
19/02:00pm 13.7 7.6 2.9 48 5.3 NNW 24 44 13 24 1021.9 1017.5 0.0
19/01:30pm 12.9 6.6 3.6 53 4.6 N 26 43 14 23 1022.0 1017.6 0.0
19/01:00pm 14.1 8.9 3.6 49 5.2 NW 20 30 11 16 1022.4 1018.0 0.0
19/12:30pm 12.8 7.1 2.9 51 4.8 NW 22 35 12 19 1022.6 1018.2 0.0
19/12:00pm 13.0 7.1 2.0 47 5.3 NNW 22 33 12 18 1022.4 1018.0 0.0
19/11:30am 13.0 7.6 1.0 44 5.6 NW 19 32 10 17 1022.6 1018.2 0.0
19/11:00am 11.5 5.2 1.5 50 4.7 NNW 24 33 13 18 1022.7 1018.3 0.0
19/10:30am 10.7 4.2 0.2 48 4.8 NNW 24 37 13 20 1022.7 1018.3 0.0
19/10:00am 11.6 6.1 0.7 47 5.0 NNW 19 30 10 16 1022.8 1018.4 0.0
19/09:30am 10.3 4.1 -0.2 48 4.7 NNW 22 32 12 17 1022.7 1018.3 0.0
19/09:00am 10.1 4.3 -0.1 49 4.6 NNW 20 30 11 16 1023.0 1018.6 0.0
19/08:30am 9.8 4.2 0.2 51 4.3 NNW 19 30 10 16 1022.7 1018.3 0.0
19/08:00am 9.2 4.0 -0.1 52 4.1 NW 17 22 9 12 1022.4 1018.0 0.0
19/07:30am 8.4 3.8 -1.1 51 4.1 NW 13 22 7 12 1022.1 1017.7 0.0
19/07:00am 7.7 2.1 -2.9 47 4.3 NW 17 22 9 12 1022.0 1017.6 0.0
19/06:30am 6.8 1.6 -2.4 52 3.8 NW 15 19 8 10 1021.8 1017.3 0.0
19/06:00am 6.3 1.7 -0.9 60 3.1 NW 13 17 7 9 1021.8 1017.3 0.0

Other Formats:

Comma delimited format used in spreadsheet applications
http://www.bom.gov.au/fwo/IDV60801/IDV60801.94903.axf

JavaScript Object Notation format (JSON) in row-major order
http://www.bom.gov.au/fwo/IDV60801/IDV60801.94903.json